createdAt,value
2022-08-17T00:02:26.140Z,58.48
2022-08-17T00:04:54.748Z,58.92
2022-08-17T00:07:22.003Z,58.96
2022-08-17T00:09:48.819Z,59.30
2022-08-17T00:12:42.249Z,59.15
2022-08-17T00:15:05.876Z,59.05
2022-08-17T00:17:36.077Z,59.20
2022-08-17T00:20:04.271Z,59.51
2022-08-17T00:22:35.705Z,59.66
2022-08-17T00:25:12.229Z,59.67
2022-08-17T00:27:39.518Z,60.06
2022-08-17T00:30:10.241Z,59.65
2022-08-17T00:33:12.093Z,60.31
2022-08-17T00:35:33.125Z,60.51
2022-08-17T00:38:00.092Z,59.93
2022-08-17T00:40:27.533Z,60.76
2022-08-17T00:43:20.376Z,61.06
2022-08-17T00:45:48.609Z,60.73
2022-08-17T00:48:29.531Z,61.16
2022-08-17T00:51:00.134Z,61.09
2022-08-17T00:53:29.424Z,61.08
2022-08-17T00:55:58.570Z,60.44
2022-08-17T00:58:36.369Z,60.77
2022-08-17T01:01:05.446Z,60.53
2022-08-17T01:03:33.583Z,60.39
2022-08-17T01:06:02.609Z,60.27
2022-08-17T01:08:31.271Z,60.24
2022-08-17T01:11:05.423Z,61.13
2022-08-17T01:13:41.064Z,61.14
2022-08-17T01:16:20.155Z,61.24
2022-08-17T01:18:50.708Z,60.81
2022-08-17T01:21:29.065Z,60.37
2022-08-17T01:23:56.492Z,60.45
2022-08-17T01:26:23.682Z,60.60
2022-08-17T01:28:54.457Z,60.91
2022-08-17T01:31:23.028Z,61.05
2022-08-17T01:33:49.736Z,61.31
2022-08-17T01:36:16.454Z,61.17
2022-08-17T01:38:43.690Z,61.13
2022-08-17T01:41:14.507Z,61.20
2022-08-17T01:43:51.088Z,61.14
2022-08-17T01:46:27.221Z,61.51
2022-08-17T01:48:56.369Z,61.58
2022-08-17T01:51:25.965Z,61.84
2022-08-17T01:53:58.319Z,61.84
2022-08-17T01:56:26.941Z,61.85
2022-08-17T01:58:54.284Z,61.96
2022-08-17T02:01:25.002Z,62.09
2022-08-17T02:03:56.210Z,62.16
2022-08-17T02:06:28.326Z,61.95
2022-08-17T02:09:03.270Z,62.33
2022-08-17T02:11:33.537Z,61.91
2022-08-17T02:14:03.279Z,60.74
2022-08-17T02:16:37.063Z,60.71
2022-08-17T02:19:10.826Z,61.27
2022-08-17T02:21:38.897Z,61.58
2022-08-17T02:24:08.301Z,62.10
2022-08-17T02:26:35.307Z,62.69
2022-08-17T02:29:04.042Z,63.08
2022-08-17T02:31:31.324Z,63.53
2022-08-17T02:34:03.951Z,63.74
2022-08-17T02:36:34.197Z,64.38
2022-08-17T02:39:03.420Z,64.11
2022-08-17T02:41:30.563Z,64.46
2022-08-17T02:43:57.601Z,64.79
2022-08-17T02:46:24.508Z,65.09
2022-08-17T02:48:51.213Z,65.01
2022-08-17T02:51:18.745Z,64.77
2022-08-17T02:53:45.669Z,64.51
2022-08-17T02:56:12.482Z,64.70
2022-08-17T02:58:39.307Z,64.93
2022-08-17T03:01:08.158Z,64.38
2022-08-17T03:03:36.261Z,64.51
2022-08-17T03:06:04.100Z,64.86
2022-08-17T03:08:31.170Z,64.84
2022-08-17T03:10:57.909Z,64.72
2022-08-17T03:13:24.778Z,64.77
2022-08-17T03:15:51.634Z,64.37
2022-08-17T03:18:25.272Z,64.55
2022-08-17T03:21:01.416Z,65.01
2022-08-17T03:23:29.572Z,65.01
2022-08-17T03:25:58.045Z,64.99
2022-08-17T03:28:25.539Z,65.29
2022-08-17T03:30:52.385Z,65.12
2022-08-17T03:33:20.274Z,65.29
2022-08-17T03:35:47.201Z,64.88
2022-08-17T03:38:15.129Z,65.05
2022-08-17T03:40:57.381Z,65.30
2022-08-17T03:43:30.813Z,65.52
2022-08-17T03:46:28.178Z,65.37
2022-08-17T03:49:24.748Z,65.73
2022-08-17T03:52:11.270Z,65.83
2022-08-17T03:54:57.103Z,65.75
2022-08-17T03:57:24.739Z,65.59
2022-08-17T03:59:52.221Z,65.58
2022-08-17T04:02:29.731Z,65.69
2022-08-17T04:04:57.059Z,65.82
2022-08-17T04:07:28.598Z,65.16
2022-08-17T04:09:55.709Z,64.87
2022-08-17T04:12:24.152Z,64.04
2022-08-17T04:14:53.679Z,63.43
2022-08-17T04:17:26.518Z,62.27
2022-08-17T04:19:54.027Z,59.73
2022-08-17T04:22:32.708Z,57.47
2022-08-17T04:25:15.141Z,52.89
2022-08-17T04:27:42.035Z,51.63
2022-08-17T04:30:09.346Z,50.15
2022-08-17T04:33:04.149Z,48.34
2022-08-17T04:35:37.706Z,46.58
2022-08-17T04:38:05.100Z,44.73
2022-08-17T04:40:50.539Z,43.70
2022-08-17T04:43:20.596Z,41.63
2022-08-17T04:45:56.363Z,41.26
2022-08-17T04:48:35.812Z,40.20
2022-08-17T04:51:07.240Z,38.53
2022-08-17T04:53:34.079Z,36.86
2022-08-17T04:56:01.054Z,36.49
2022-08-17T04:58:28.388Z,35.42
2022-08-17T05:00:55.275Z,34.24
2022-08-17T05:03:22.217Z,33.12
2022-08-17T05:05:51.838Z,33.77
2022-08-17T05:08:20.320Z,33.95
2022-08-17T05:10:47.722Z,33.36
2022-08-17T05:13:18.001Z,32.01
2022-08-17T05:15:49.176Z,31.58
2022-08-17T05:18:17.525Z,30.38
2022-08-17T05:20:45.264Z,29.95
2022-08-17T05:23:14.808Z,29.57
2022-08-17T05:25:46.762Z,30.34
2022-08-17T05:28:17.254Z,30.07
2022-08-17T05:30:46.273Z,31.50
2022-08-17T05:33:25.642Z,30.67
2022-08-17T05:35:54.716Z,32.26
2022-08-17T05:38:23.744Z,32.44
2022-08-17T05:40:51.192Z,29.57
2022-08-17T05:43:30.787Z,32.39
2022-08-17T05:46:13.339Z,31.83
2022-08-17T05:48:46.268Z,32.50
2022-08-17T05:51:26.908Z,33.77
2022-08-17T05:54:23.923Z,32.99
2022-08-17T05:56:56.561Z,31.84
2022-08-17T05:59:45.103Z,33.72
2022-08-17T06:02:23.011Z,32.94
2022-08-17T06:05:11.248Z,31.74
2022-08-17T06:07:41.040Z,31.60
2022-08-17T06:10:25.675Z,33.45
2022-08-17T06:13:15.954Z,30.60
2022-08-17T06:16:32.930Z,28.69
2022-08-17T06:19:01.413Z,31.24
2022-08-17T06:21:34.319Z,29.61
2022-08-17T06:24:21.723Z,29.07
2022-08-17T06:26:50.321Z,28.10
2022-08-17T06:29:27.076Z,30.12
2022-08-17T06:31:53.894Z,31.42
2022-08-17T06:34:20.894Z,31.64
2022-08-17T06:37:21.259Z,29.50
2022-08-17T06:39:50.837Z,27.37
2022-08-17T06:42:54.959Z,26.72
2022-08-17T06:45:43.898Z,27.74
2022-08-17T06:48:13.645Z,27.93
2022-08-17T06:50:47.323Z,27.84
2022-08-17T06:53:23.759Z,27.48
2022-08-17T06:56:08.745Z,28.47
2022-08-17T06:58:38.804Z,27.48
2022-08-17T07:01:16.447Z,26.43
2022-08-17T07:03:55.535Z,26.97
2022-08-17T07:06:26.528Z,27.45
2022-08-17T07:09:01.294Z,28.83
2022-08-17T07:11:43.645Z,30.36
2022-08-17T07:14:44.666Z,28.55
2022-08-17T07:17:15.185Z,27.96
2022-08-17T07:19:45.519Z,28.72
2022-08-17T07:22:18.268Z,27.87
2022-08-17T07:24:59.606Z,27.71
2022-08-17T07:27:27.782Z,27.04
2022-08-17T07:29:59.068Z,26.05
2022-08-17T07:32:53.850Z,27.18
2022-08-17T07:35:37.968Z,27.15
2022-08-17T07:38:24.168Z,28.33
2022-08-17T07:41:03.015Z,27.67
2022-08-17T07:43:39.245Z,28.42
2022-08-17T07:46:46.113Z,26.97
2022-08-17T07:49:12.816Z,28.33
2022-08-17T07:51:45.823Z,30.33
2022-08-17T07:54:14.794Z,30.20
2022-08-17T07:56:44.081Z,29.00
2022-08-17T07:59:24.176Z,27.62
2022-08-17T08:01:58.055Z,27.56
2022-08-17T08:05:00.135Z,27.88
2022-08-17T08:07:21.345Z,27.00
2022-08-17T08:10:11.780Z,27.50
2022-08-17T08:12:45.499Z,27.70
2022-08-17T08:15:33.308Z,27.11
2022-08-17T08:18:04.001Z,26.66
2022-08-17T08:20:52.674Z,28.06
2022-08-17T08:23:50.746Z,29.43
2022-08-17T08:26:23.692Z,29.88
2022-08-17T08:29:12.567Z,29.27
2022-08-17T08:31:51.453Z,29.87
2022-08-17T08:34:54.748Z,30.53
2022-08-17T08:37:42.870Z,30.71
2022-08-17T08:40:15.761Z,31.90
2022-08-17T08:42:56.500Z,32.25
2022-08-17T08:45:32.950Z,31.02
2022-08-17T08:48:55.794Z,30.78
2022-08-17T08:51:35.874Z,30.24
2022-08-17T08:54:14.653Z,29.90
2022-08-17T08:57:23.095Z,29.70
2022-08-17T09:00:08.162Z,30.36
2022-08-17T09:02:40.947Z,31.07
2022-08-17T09:05:44.525Z,31.56
2022-08-17T09:08:57.157Z,30.11
2022-08-17T09:12:01.363Z,30.52
2022-08-17T09:14:43.218Z,31.83
2022-08-17T09:17:31.763Z,30.18
2022-08-17T09:20:28.286Z,30.61
2022-08-17T09:23:15.381Z,30.53
2022-08-17T09:26:11.593Z,30.07
2022-08-17T09:28:42.687Z,30.78
2022-08-17T09:31:20.313Z,31.23
2022-08-17T09:33:49.074Z,29.95
2022-08-17T09:36:23.187Z,29.51
2022-08-17T09:39:02.843Z,29.67
2022-08-17T09:41:48.966Z,30.11
2022-08-17T09:44:23.679Z,29.96
2022-08-17T09:47:00.255Z,29.22
2022-08-17T09:49:56.036Z,29.70
2022-08-17T09:52:28.811Z,29.17
2022-08-17T09:54:57.875Z,29.66
2022-08-17T09:58:11.382Z,28.90
2022-08-17T10:00:46.900Z,29.38
2022-08-17T10:03:49.135Z,29.86
2022-08-17T10:06:24.508Z,28.78
2022-08-17T10:08:58.512Z,29.35
2022-08-17T10:12:00.714Z,29.80
2022-08-17T10:14:53.620Z,29.97
2022-08-17T10:17:21.942Z,28.67
2022-08-17T10:20:11.865Z,28.59
2022-08-17T10:23:04.583Z,28.57
2022-08-17T10:25:55.768Z,29.14
2022-08-17T10:28:29.696Z,28.51
2022-08-17T10:31:30.938Z,28.45
2022-08-17T10:34:06.994Z,28.06
2022-08-17T10:36:55.349Z,27.28
2022-08-17T10:39:52.739Z,28.05
2022-08-17T10:42:36.178Z,28.63
2022-08-17T10:45:14.540Z,28.11
2022-08-17T10:48:07.052Z,28.67
2022-08-17T10:50:58.317Z,28.56
2022-08-17T10:53:43.690Z,28.35
2022-08-17T10:56:13.582Z,28.01
2022-08-17T10:58:59.895Z,28.59
2022-08-17T11:01:32.924Z,27.96
2022-08-17T11:04:18.542Z,29.14
2022-08-17T11:07:02.433Z,28.70
2022-08-17T11:10:01.031Z,27.29
2022-08-17T11:13:06.733Z,27.93
2022-08-17T11:15:58.834Z,28.27
2022-08-17T11:18:52.624Z,27.60
2022-08-17T11:21:39.854Z,27.16
2022-08-17T11:24:28.509Z,27.66
2022-08-17T11:27:23.552Z,27.99
2022-08-17T11:30:01.895Z,27.09
2022-08-17T11:32:47.500Z,26.87
2022-08-17T11:35:21.129Z,27.91
2022-08-17T11:37:59.066Z,27.14
2022-08-17T11:41:03.454Z,28.06
2022-08-17T11:43:55.654Z,27.54
2022-08-17T11:47:08.888Z,27.41
2022-08-17T11:50:00.664Z,27.27
2022-08-17T11:52:47.378Z,26.91
2022-08-17T11:55:44.739Z,26.90
2022-08-17T11:58:30.098Z,27.88
2022-08-17T12:01:01.105Z,27.27
2022-08-17T12:03:31.822Z,27.14
2022-08-17T12:06:19.509Z,27.03
2022-08-17T12:08:55.839Z,26.32
2022-08-17T12:11:57.775Z,28.11
2022-08-17T12:14:45.445Z,28.17
2022-08-17T12:17:40.555Z,26.85
2022-08-17T12:20:31.297Z,27.16
2022-08-17T12:23:12.037Z,26.48
2022-08-17T12:25:58.388Z,26.67
2022-08-17T12:28:35.001Z,27.46
2022-08-17T12:31:04.510Z,27.06
2022-08-17T12:33:31.948Z,26.71
2022-08-17T12:36:03.153Z,27.00
2022-08-17T12:38:34.760Z,26.32
2022-08-17T12:41:24.769Z,26.46
2022-08-17T12:44:23.267Z,25.60
2022-08-17T12:47:07.633Z,25.56
2022-08-17T12:49:38.147Z,25.88
2022-08-17T12:52:07.307Z,25.74
2022-08-17T12:54:54.463Z,26.29
2022-08-17T12:57:33.848Z,26.78
2022-08-17T13:00:09.522Z,26.71
2022-08-17T13:02:47.040Z,26.00
2022-08-17T13:05:27.691Z,26.02
2022-08-17T13:07:57.293Z,26.11
2022-08-17T13:10:33.584Z,25.35
2022-08-17T13:13:17.666Z,25.50
2022-08-17T13:15:54.719Z,25.03
2022-08-17T13:18:38.863Z,24.75
2022-08-17T13:21:27.480Z,24.52
2022-08-17T13:24:03.615Z,25.50
2022-08-17T13:26:51.480Z,26.25
2022-08-17T13:29:38.757Z,25.52
2022-08-17T13:32:13.020Z,25.26
2022-08-17T13:35:08.284Z,25.00
2022-08-17T13:37:34.757Z,24.57
2022-08-17T13:40:10.288Z,24.64
2022-08-17T13:42:52.966Z,24.56
2022-08-17T13:45:35.176Z,23.80
2022-08-17T13:48:15.889Z,24.52
2022-08-17T13:50:56.987Z,23.99
2022-08-17T13:53:32.977Z,24.15
2022-08-17T13:56:37.621Z,24.08
2022-08-17T13:58:57.783Z,23.89
2022-08-17T14:01:41.984Z,24.61
2022-08-17T14:04:21.830Z,24.65
2022-08-17T14:07:23.108Z,25.40
2022-08-17T14:09:59.267Z,24.36
2022-08-17T14:12:28.595Z,23.69
2022-08-17T14:14:56.529Z,23.61
2022-08-17T14:17:26.961Z,24.91
2022-08-17T14:19:53.783Z,24.60
2022-08-17T14:22:33.224Z,24.33
2022-08-17T14:25:01.750Z,24.36
2022-08-17T14:27:31.799Z,24.77
2022-08-17T14:29:58.636Z,24.27
2022-08-17T14:32:29.613Z,24.52
2022-08-17T14:34:57.922Z,24.33
2022-08-17T14:37:28.237Z,24.78
2022-08-17T14:40:00.337Z,24.89
2022-08-17T14:42:32.873Z,25.02
2022-08-17T14:45:06.220Z,25.58
2022-08-17T14:47:53.818Z,25.35
2022-08-17T14:50:23.223Z,24.68
2022-08-17T14:52:57.932Z,25.08
2022-08-17T14:55:25.531Z,24.83
2022-08-17T14:57:52.857Z,24.41
2022-08-17T15:00:22.787Z,24.72
2022-08-17T15:03:00.433Z,24.57
2022-08-17T15:05:31.868Z,25.02
2022-08-17T15:08:01.324Z,24.87
2022-08-17T15:10:36.959Z,24.38
2022-08-17T15:13:15.952Z,24.09
2022-08-17T15:15:43.702Z,24.71
2022-08-17T15:18:14.381Z,24.47
2022-08-17T15:20:42.130Z,24.15
2022-08-17T15:23:13.194Z,24.86
2022-08-17T15:25:40.672Z,24.52
2022-08-17T15:28:12.522Z,24.38
2022-08-17T15:30:45.015Z,24.97
2022-08-17T15:33:18.281Z,24.72
2022-08-17T15:35:53.613Z,25.55
2022-08-17T15:38:21.059Z,26.20
2022-08-17T15:40:50.894Z,24.97
2022-08-17T15:43:27.940Z,25.74
2022-08-17T15:46:00.963Z,25.00
2022-08-17T15:48:57.135Z,25.82
2022-08-17T15:51:33.059Z,25.71
2022-08-17T15:54:19.377Z,25.84
2022-08-17T15:56:50.857Z,25.67
2022-08-17T15:59:17.839Z,26.52
2022-08-17T16:03:14.688Z,25.52
2022-08-17T16:04:31.928Z,25.55
2022-08-17T16:06:59.670Z,26.11
2022-08-17T16:09:26.484Z,26.36
2022-08-17T16:11:55.306Z,27.04
2022-08-17T16:14:24.088Z,26.97
2022-08-17T16:16:51.688Z,26.89
2022-08-17T16:19:18.485Z,26.62
2022-08-17T16:21:45.284Z,26.27
2022-08-17T16:24:12.849Z,26.28
2022-08-17T16:26:42.486Z,26.28
2022-08-17T16:29:09.819Z,26.26
2022-08-17T16:31:37.750Z,26.87
2022-08-17T16:34:16.913Z,26.58
2022-08-17T16:36:51.786Z,27.14
2022-08-17T16:39:29.426Z,27.40
2022-08-17T16:41:57.309Z,27.08
2022-08-17T16:44:25.881Z,27.38
2022-08-17T16:46:52.731Z,27.45
2022-08-17T16:49:31.572Z,27.16
2022-08-17T16:52:03.778Z,27.15
2022-08-17T16:54:30.709Z,27.21
2022-08-17T16:56:57.436Z,27.28
2022-08-17T16:59:39.402Z,27.21
2022-08-17T17:02:13.278Z,28.29
2022-08-17T17:04:49.375Z,28.92
2022-08-17T17:07:40.559Z,29.80
2022-08-17T17:10:15.172Z,29.88
2022-08-17T17:13:01.985Z,28.46
2022-08-17T17:15:43.431Z,28.63
2022-08-17T17:18:12.705Z,27.27
2022-08-17T17:21:00.436Z,28.76
2022-08-17T17:23:48.584Z,28.31
2022-08-17T17:26:44.940Z,28.26
2022-08-17T17:29:47.891Z,27.42
2022-08-17T17:32:39.887Z,29.59
2022-08-17T17:35:25.472Z,30.54
2022-08-17T17:37:57.621Z,30.70
2022-08-17T17:40:43.350Z,30.82
2022-08-17T17:43:37.846Z,29.72
2022-08-17T17:46:27.219Z,30.73
2022-08-17T17:48:57.057Z,30.87
2022-08-17T17:52:06.625Z,32.71
2022-08-17T17:54:56.265Z,31.46
2022-08-17T17:57:38.765Z,31.79
2022-08-17T18:00:22.435Z,32.26
2022-08-17T18:03:21.539Z,32.28
2022-08-17T18:06:00.613Z,33.40
2022-08-17T18:08:33.990Z,34.63
2022-08-17T18:11:35.227Z,36.06
2022-08-17T18:14:20.292Z,36.01
2022-08-17T18:16:56.436Z,36.51
2022-08-17T18:19:26.678Z,36.31
2022-08-17T18:22:06.813Z,36.60
2022-08-17T18:24:40.145Z,36.17
2022-08-17T18:27:25.654Z,35.95
2022-08-17T18:29:55.971Z,36.13
2022-08-17T18:32:22.858Z,35.98
2022-08-17T18:35:09.845Z,36.54
2022-08-17T18:38:20.041Z,36.70
2022-08-17T18:40:58.205Z,36.12
2022-08-17T18:43:44.161Z,35.45
2022-08-17T18:46:28.575Z,34.78
2022-08-17T18:49:02.961Z,34.66
2022-08-17T18:51:42.755Z,34.40
2022-08-17T18:54:19.162Z,34.72
2022-08-17T18:56:52.758Z,36.25
2022-08-17T18:59:52.133Z,37.84
2022-08-17T19:02:44.734Z,37.62
2022-08-17T19:05:35.743Z,38.47
2022-08-17T19:08:17.897Z,38.66
2022-08-17T19:10:47.449Z,37.52
2022-08-17T19:13:24.923Z,38.16
2022-08-17T19:16:14.945Z,38.91
2022-08-17T19:19:01.927Z,38.23
2022-08-17T19:21:42.934Z,38.89
2022-08-17T19:24:23.128Z,38.71
2022-08-17T19:27:00.538Z,39.53
2022-08-17T19:29:39.121Z,38.71
2022-08-17T19:32:10.872Z,39.78
2022-08-17T19:34:39.347Z,39.90
2022-08-17T19:37:17.603Z,38.17
2022-08-17T19:40:35.157Z,39.47
2022-08-17T19:43:06.565Z,39.52
2022-08-17T19:45:56.193Z,39.50
2022-08-17T19:49:16.015Z,40.61
2022-08-17T19:52:44.366Z,40.61
2022-08-17T19:55:48.390Z,40.05
2022-08-17T19:58:46.872Z,39.51
2022-08-17T20:01:21.283Z,39.11
2022-08-17T20:03:58.107Z,39.00
2022-08-17T20:06:28.999Z,38.77
2022-08-17T20:09:15.314Z,39.92
2022-08-17T20:11:54.820Z,39.82
2022-08-17T20:14:28.417Z,41.17
2022-08-17T20:16:59.295Z,41.12
2022-08-17T20:19:49.919Z,43.04
2022-08-17T20:22:52.085Z,43.03
2022-08-17T20:25:30.934Z,42.87
2022-08-17T20:28:17.266Z,42.72
2022-08-17T20:30:44.313Z,42.08
2022-08-17T20:33:34.171Z,41.16
2022-08-17T20:36:19.719Z,40.95
2022-08-17T20:38:55.439Z,41.40
2022-08-17T20:41:24.088Z,42.38
2022-08-17T20:44:03.421Z,43.99
2022-08-17T20:46:36.229Z,43.40
2022-08-17T20:49:08.964Z,43.75
2022-08-17T20:52:07.820Z,43.09
2022-08-17T20:55:03.010Z,42.56
2022-08-17T20:57:35.796Z,42.80
2022-08-17T21:00:25.296Z,43.09
2022-08-17T21:03:24.471Z,43.43
2022-08-17T21:06:00.316Z,44.52
2022-08-17T21:08:29.753Z,45.07
2022-08-17T21:10:58.427Z,45.57
2022-08-17T21:13:40.804Z,45.73
2022-08-17T21:16:24.410Z,45.73
2022-08-17T21:19:24.473Z,46.03
2022-08-17T21:22:12.791Z,46.28
2022-08-17T21:24:42.619Z,46.33
2022-08-17T21:27:50.092Z,46.37
2022-08-17T21:30:29.019Z,46.58
2022-08-17T21:33:17.361Z,46.59
2022-08-17T21:36:17.286Z,46.43
2022-08-17T21:38:57.406Z,45.99
2022-08-17T21:41:34.892Z,46.07
2022-08-17T21:44:18.172Z,45.36
2022-08-17T21:46:51.752Z,45.91
2022-08-17T21:49:25.290Z,44.99
2022-08-17T21:51:55.125Z,45.90
2022-08-17T21:54:38.859Z,46.35
2022-08-17T21:57:14.899Z,46.13
2022-08-17T21:59:44.198Z,46.15
2022-08-17T22:02:24.780Z,47.29
2022-08-17T22:05:06.760Z,47.17
2022-08-17T22:08:18.297Z,46.90
2022-08-17T22:10:48.969Z,46.82
2022-08-17T22:13:23.439Z,47.85
2022-08-17T22:16:15.724Z,47.82
2022-08-17T22:18:57.998Z,47.21
2022-08-17T22:21:25.497Z,47.98
2022-08-17T22:24:06.809Z,49.36
2022-08-17T22:27:00.108Z,50.48
2022-08-17T22:29:58.065Z,51.01
2022-08-17T22:32:41.940Z,51.81
2022-08-17T22:35:32.803Z,51.73
2022-08-17T22:38:18.374Z,51.71
2022-08-17T22:40:51.153Z,52.08
2022-08-17T22:43:26.008Z,52.02
2022-08-17T22:45:56.099Z,52.35
2022-08-17T22:48:27.221Z,52.05
2022-08-17T22:51:14.662Z,52.33
2022-08-17T22:54:12.807Z,52.15
2022-08-17T22:57:06.776Z,52.58
2022-08-17T22:59:46.465Z,52.35
2022-08-17T23:02:19.617Z,52.10
2022-08-17T23:04:53.135Z,51.88
2022-08-17T23:07:22.977Z,52.16
2022-08-17T23:09:51.862Z,51.83
2022-08-17T23:12:24.061Z,52.72
2022-08-17T23:14:58.566Z,52.73
2022-08-17T23:17:25.255Z,53.31
2022-08-17T23:19:52.163Z,53.21
2022-08-17T23:22:18.915Z,54.00
2022-08-17T23:24:49.069Z,54.18
2022-08-17T23:27:17.747Z,54.50
2022-08-17T23:29:45.192Z,54.88
2022-08-17T23:32:15.057Z,55.25
2022-08-17T23:34:44.304Z,54.93
2022-08-17T23:37:12.049Z,54.13
2022-08-17T23:39:39.956Z,55.38
2022-08-17T23:42:09.162Z,56.14
2022-08-17T23:44:37.761Z,55.59
2022-08-17T23:47:05.721Z,55.70
2022-08-17T23:49:32.558Z,55.84
2022-08-17T23:52:01.459Z,55.77
2022-08-17T23:54:43.722Z,56.18
2022-08-17T23:57:12.905Z,56.14
2022-08-17T23:59:40.453Z,55.86
